createdAt,value
2022-12-22T00:01:04.277Z,8.80
2022-12-22T00:03:51.488Z,8.90
2022-12-22T00:06:37.211Z,8.80
2022-12-22T00:09:22.789Z,8.90
2022-12-22T00:12:08.138Z,8.90
2022-12-22T00:14:53.584Z,8.90
2022-12-22T00:17:43.528Z,8.90
2022-12-22T00:20:35.906Z,8.80
2022-12-22T00:23:21.404Z,8.80
2022-12-22T00:26:07.338Z,8.80
2022-12-22T00:28:54.394Z,8.80
2022-12-22T00:31:41.591Z,8.80
2022-12-22T00:34:32.732Z,8.80
2022-12-22T00:37:19.812Z,8.90
2022-12-22T00:40:05.284Z,8.90
2022-12-22T00:42:50.570Z,8.90
2022-12-22T00:45:36.001Z,8.90
2022-12-22T00:48:22.180Z,8.80
2022-12-22T00:51:08.140Z,8.90
2022-12-22T00:53:55.169Z,8.90
2022-12-22T00:56:40.776Z,8.80
2022-12-22T00:59:28.270Z,8.90
2022-12-22T01:02:13.636Z,8.90
2022-12-22T01:04:59.379Z,8.80
2022-12-22T01:07:45.664Z,8.80
2022-12-22T01:10:33.135Z,8.80
2022-12-22T01:13:18.449Z,8.90
2022-12-22T01:16:03.961Z,8.90
2022-12-22T01:18:49.328Z,8.90
2022-12-22T01:21:36.139Z,8.90
2022-12-22T01:24:23.916Z,8.80
2022-12-22T01:27:10.576Z,8.80
2022-12-22T01:29:56.032Z,8.80
2022-12-22T01:32:41.640Z,8.80
2022-12-22T01:35:35.562Z,8.90
2022-12-22T01:38:20.752Z,8.90
2022-12-22T01:41:06.677Z,8.80
2022-12-22T01:43:54.424Z,8.90
2022-12-22T01:46:42.421Z,8.90
2022-12-22T01:49:31.612Z,8.90
2022-12-22T01:52:17.409Z,8.80
2022-12-22T01:55:02.939Z,8.90
2022-12-22T01:57:49.503Z,8.80
2022-12-22T02:00:36.644Z,8.80
2022-12-22T02:03:22.303Z,8.80
2022-12-22T02:06:23.578Z,8.80
2022-12-22T02:09:19.008Z,9.00
2022-12-22T02:12:12.288Z,8.90
2022-12-22T02:15:05.585Z,8.90
2022-12-22T02:18:03.348Z,8.90
2022-12-22T02:21:00.487Z,8.80
2022-12-22T02:24:06.521Z,8.90
2022-12-22T02:26:56.612Z,8.80
2022-12-22T02:29:47.822Z,8.80
2022-12-22T02:32:33.683Z,8.80
2022-12-22T02:35:19.187Z,8.80
2022-12-22T02:38:16.408Z,8.80
2022-12-22T02:41:12.165Z,8.90
2022-12-22T02:44:18.797Z,8.70
2022-12-22T02:47:12.131Z,8.80
2022-12-22T02:50:02.017Z,8.80
2022-12-22T02:52:51.944Z,8.80
2022-12-22T02:55:39.409Z,8.80
2022-12-22T02:58:25.228Z,8.80
2022-12-22T03:01:12.021Z,8.80
2022-12-22T03:03:57.707Z,8.90
2022-12-22T03:06:43.144Z,8.80
2022-12-22T03:09:28.741Z,8.80
2022-12-22T03:12:14.182Z,9.30
2022-12-22T03:14:59.352Z,8.80
2022-12-22T03:17:46.236Z,9.30
2022-12-22T03:20:31.835Z,8.70
2022-12-22T03:23:22.363Z,8.80
2022-12-22T03:25:56.102Z,8.70
2022-12-22T03:28:26.536Z,8.70
2022-12-22T03:30:56.715Z,8.70
2022-12-22T03:33:26.185Z,8.70
2022-12-22T03:35:54.149Z,8.70
2022-12-22T03:38:22.410Z,8.70
2022-12-22T03:40:50.388Z,9.20
2022-12-22T03:43:36.501Z,8.70
2022-12-22T03:46:22.357Z,8.70
2022-12-22T03:49:05.573Z,8.70
2022-12-22T03:51:33.855Z,8.70
2022-12-22T03:54:02.144Z,8.70
2022-12-22T03:56:30.321Z,8.70
2022-12-22T03:58:58.422Z,8.70
2022-12-22T04:01:26.565Z,8.70
2022-12-22T04:03:56.013Z,8.80
2022-12-22T04:06:24.087Z,8.80
2022-12-22T04:08:52.329Z,8.80
2022-12-22T04:11:38.013Z,8.80
2022-12-22T04:14:06.135Z,8.90
2022-12-22T04:16:34.335Z,8.90
2022-12-22T04:19:04.193Z,8.90
2022-12-22T04:21:32.100Z,9.10
2022-12-22T04:24:00.104Z,8.90
2022-12-22T04:26:28.271Z,8.90
2022-12-22T04:28:56.585Z,8.90
2022-12-22T04:31:24.745Z,8.90
2022-12-22T04:33:53.073Z,8.80
2022-12-22T04:36:22.437Z,9.50
2022-12-22T04:38:50.396Z,8.80
2022-12-22T04:41:18.380Z,8.80
2022-12-22T04:43:46.485Z,8.80
2022-12-22T04:46:14.514Z,8.80
2022-12-22T04:48:42.642Z,8.80
2022-12-22T04:51:10.698Z,8.70
2022-12-22T04:53:40.124Z,8.70
2022-12-22T04:56:09.517Z,8.70
2022-12-22T04:58:37.798Z,8.70
2022-12-22T05:01:13.652Z,8.60
2022-12-22T05:03:41.939Z,8.70
2022-12-22T05:06:11.012Z,9.00
2022-12-22T05:08:40.394Z,8.60
2022-12-22T05:11:08.827Z,8.60
2022-12-22T05:13:36.875Z,8.50
2022-12-22T05:16:06.816Z,8.60
2022-12-22T05:18:35.592Z,8.60
2022-12-22T05:21:05.150Z,8.50
2022-12-22T05:23:33.215Z,8.60
2022-12-22T05:26:02.825Z,8.50
2022-12-22T05:28:32.114Z,8.50
2022-12-22T05:31:05.302Z,8.50
2022-12-22T05:33:33.419Z,8.40
2022-12-22T05:36:01.829Z,8.40
2022-12-22T05:38:29.816Z,8.40
2022-12-22T05:41:03.636Z,8.40
2022-12-22T05:43:33.636Z,8.40
2022-12-22T05:46:03.767Z,8.50
2022-12-22T05:48:37.915Z,8.40
2022-12-22T05:51:06.887Z,8.30
2022-12-22T05:53:34.892Z,8.30
2022-12-22T05:56:02.839Z,8.30
2022-12-22T05:58:30.779Z,8.30
2022-12-22T06:01:00.531Z,8.20
2022-12-22T06:03:29.658Z,8.70
2022-12-22T06:05:58.402Z,8.20
2022-12-22T06:08:26.894Z,8.20
2022-12-22T06:10:56.101Z,8.10
2022-12-22T06:13:24.922Z,9.00
2022-12-22T06:15:53.165Z,8.00
2022-12-22T06:18:22.808Z,8.00
2022-12-22T06:20:53.358Z,8.00
2022-12-22T06:23:21.537Z,8.00
2022-12-22T06:25:55.964Z,7.90
2022-12-22T06:28:23.941Z,7.90
2022-12-22T06:30:51.995Z,7.90
2022-12-22T06:33:20.058Z,7.80
2022-12-22T06:35:57.592Z,7.70
2022-12-22T06:38:26.971Z,7.70
2022-12-22T06:40:54.975Z,7.80
2022-12-22T06:43:22.039Z,7.70
2022-12-22T06:45:50.393Z,7.60
2022-12-22T06:48:18.324Z,7.60
2022-12-22T06:50:46.383Z,8.10
2022-12-22T06:53:15.898Z,7.60
2022-12-22T06:55:44.043Z,7.50
2022-12-22T06:58:12.025Z,7.40
2022-12-22T07:00:40.012Z,7.40
2022-12-22T07:03:08.218Z,8.40
2022-12-22T07:05:36.443Z,7.30
2022-12-22T07:08:08.773Z,7.30
2022-12-22T07:10:56.377Z,7.20
2022-12-22T07:13:24.581Z,7.20
2022-12-22T07:15:59.898Z,7.10
2022-12-22T07:18:30.449Z,7.00
2022-12-22T07:20:58.859Z,7.00
2022-12-22T07:23:27.899Z,7.00
2022-12-22T07:25:57.332Z,7.00
2022-12-22T07:28:25.780Z,7.00
2022-12-22T07:30:55.258Z,6.90
2022-12-22T07:33:23.752Z,6.80
2022-12-22T07:36:04.162Z,6.80
2022-12-22T07:38:37.232Z,6.80
2022-12-22T07:41:27.970Z,6.80
2022-12-22T07:43:55.918Z,6.70
2022-12-22T07:46:25.148Z,6.70
2022-12-22T07:49:11.019Z,6.70
2022-12-22T07:51:41.636Z,6.70
2022-12-22T07:54:10.931Z,6.60
2022-12-22T07:56:40.315Z,6.60
2022-12-22T07:59:08.333Z,6.60
2022-12-22T08:01:36.511Z,6.60
2022-12-22T08:04:04.958Z,6.60
2022-12-22T08:06:34.749Z,6.60
2022-12-22T08:09:02.713Z,6.50
2022-12-22T08:11:30.794Z,6.50
2022-12-22T08:14:01.872Z,6.50
2022-12-22T08:16:30.478Z,6.50
2022-12-22T08:18:58.630Z,6.40
2022-12-22T08:21:26.674Z,6.40
2022-12-22T08:23:54.582Z,6.30
2022-12-22T08:26:26.153Z,6.40
2022-12-22T08:28:57.942Z,6.40
2022-12-22T08:31:29.038Z,6.40
2022-12-22T08:33:59.629Z,6.40
2022-12-22T08:36:27.902Z,6.40
2022-12-22T08:38:57.354Z,6.30
2022-12-22T08:41:39.364Z,6.30
2022-12-22T08:44:07.365Z,6.30
2022-12-22T08:46:36.707Z,6.30
2022-12-22T08:49:04.780Z,6.20
2022-12-22T08:51:32.774Z,6.30
2022-12-22T08:54:05.576Z,6.20
2022-12-22T08:56:33.776Z,6.30
2022-12-22T08:59:05.106Z,6.30
2022-12-22T09:01:34.758Z,6.30
2022-12-22T09:04:04.545Z,6.30
2022-12-22T09:06:40.153Z,6.30
2022-12-22T09:09:10.530Z,6.20
2022-12-22T09:11:39.606Z,6.30
2022-12-22T09:14:08.878Z,6.20
2022-12-22T09:16:37.081Z,6.60
2022-12-22T09:19:07.790Z,6.30
2022-12-22T09:21:36.501Z,6.30
2022-12-22T09:24:07.458Z,6.30
2022-12-22T09:26:35.808Z,6.20
2022-12-22T09:29:04.377Z,6.30
2022-12-22T09:31:32.890Z,6.30
2022-12-22T09:34:00.943Z,6.30
2022-12-22T09:36:32.875Z,6.40
2022-12-22T09:39:04.942Z,6.90
2022-12-22T09:41:37.137Z,6.40
2022-12-22T09:44:07.197Z,6.40
2022-12-22T09:46:36.777Z,6.40
2022-12-22T09:49:07.265Z,6.50
2022-12-22T09:51:42.863Z,6.50
2022-12-22T09:54:13.365Z,6.60
2022-12-22T09:56:41.612Z,6.60
2022-12-22T09:59:14.840Z,6.70
2022-12-22T10:02:04.854Z,6.80
2022-12-22T10:04:50.020Z,6.80
2022-12-22T10:07:28.509Z,6.90
2022-12-22T10:09:56.523Z,6.90
2022-12-22T10:12:26.194Z,6.90
2022-12-22T10:14:55.305Z,6.90
2022-12-22T10:17:26.505Z,7.00
2022-12-22T10:20:07.002Z,7.10
2022-12-22T10:22:41.612Z,7.20
2022-12-22T10:25:39.763Z,7.30
2022-12-22T10:28:21.638Z,7.40
2022-12-22T10:30:49.733Z,7.50
2022-12-22T10:33:19.820Z,7.70
2022-12-22T10:35:50.875Z,7.70
2022-12-22T10:38:30.597Z,7.70
2022-12-22T10:41:02.677Z,7.70
2022-12-22T10:43:33.857Z,7.70
2022-12-22T10:46:03.425Z,7.70
2022-12-22T10:48:33.292Z,7.70
2022-12-22T10:51:02.235Z,7.70
2022-12-22T10:53:47.444Z,7.70
2022-12-22T10:56:22.520Z,7.80
2022-12-22T10:58:52.701Z,7.80
2022-12-22T11:01:26.897Z,7.80
2022-12-22T11:03:55.148Z,7.80
2022-12-22T11:06:23.677Z,7.70
2022-12-22T11:08:52.960Z,7.60
2022-12-22T11:11:38.830Z,7.00
2022-12-22T11:14:17.774Z,7.50
2022-12-22T11:16:51.226Z,7.40
2022-12-22T11:19:41.262Z,7.40
2022-12-22T11:22:19.794Z,7.50
2022-12-22T11:25:02.931Z,7.50
2022-12-22T11:27:46.131Z,8.20
2022-12-22T11:30:18.126Z,7.40
2022-12-22T11:33:21.101Z,7.40
2022-12-22T11:35:53.083Z,7.40
2022-12-22T11:38:28.111Z,7.40
2022-12-22T11:41:05.421Z,7.40
2022-12-22T11:43:45.083Z,7.40
2022-12-22T11:46:23.480Z,7.50
2022-12-22T11:49:05.746Z,7.40
2022-12-22T11:51:51.478Z,7.40
2022-12-22T11:54:49.941Z,7.50
2022-12-22T11:57:31.650Z,7.50
2022-12-22T12:00:07.099Z,7.60
2022-12-22T12:03:06.003Z,7.60
2022-12-22T12:05:44.642Z,7.50
2022-12-22T12:08:23.554Z,7.50
2022-12-22T12:10:55.070Z,7.50
2022-12-22T12:13:37.501Z,7.50
2022-12-22T12:16:15.392Z,7.80
2022-12-22T12:19:06.774Z,7.60
2022-12-22T12:21:43.855Z,7.60
2022-12-22T12:24:27.328Z,7.70
2022-12-22T12:27:03.351Z,7.70
2022-12-22T12:29:38.485Z,7.70
2022-12-22T12:32:13.086Z,7.70
2022-12-22T12:34:46.648Z,7.70
2022-12-22T12:37:26.410Z,7.70
2022-12-22T12:40:03.856Z,8.80
2022-12-22T12:42:34.705Z,7.80
2022-12-22T12:45:05.190Z,7.80
2022-12-22T12:47:34.390Z,7.80
2022-12-22T12:50:33.580Z,7.80
2022-12-22T12:53:08.551Z,7.90
2022-12-22T12:55:54.036Z,8.40
2022-12-22T12:58:53.699Z,7.90
2022-12-22T13:01:57.550Z,7.90
2022-12-22T13:05:14.754Z,8.00
2022-12-22T13:08:14.199Z,8.00
2022-12-22T13:10:45.931Z,8.00
2022-12-22T13:13:30.010Z,8.00
2022-12-22T13:16:24.431Z,8.10
2022-12-22T13:18:58.495Z,8.10
2022-12-22T13:24:27.187Z,8.20
2022-12-22T13:26:57.763Z,8.20
2022-12-22T13:29:30.272Z,8.20
2022-12-22T13:32:02.731Z,8.30
2022-12-22T13:35:04.425Z,8.30
2022-12-22T13:37:29.936Z,8.40
2022-12-22T13:40:19.443Z,8.40
2022-12-22T13:42:50.495Z,8.50
2022-12-22T13:45:40.429Z,8.50
2022-12-22T13:48:13.875Z,8.50
2022-12-22T13:50:47.239Z,8.50
2022-12-22T13:53:50.018Z,8.50
2022-12-22T13:56:16.832Z,8.50
2022-12-22T13:58:47.640Z,8.80
2022-12-22T14:01:18.174Z,9.50
2022-12-22T14:04:01.295Z,9.30
2022-12-22T14:06:34.097Z,9.50
2022-12-22T14:09:16.643Z,8.60
2022-12-22T14:11:51.184Z,8.60
2022-12-22T14:14:26.162Z,8.60
2022-12-22T14:16:56.854Z,8.60
2022-12-22T14:19:26.663Z,8.60
2022-12-22T14:22:06.349Z,8.60
2022-12-22T14:24:38.846Z,8.60
2022-12-22T14:27:16.737Z,9.10
2022-12-22T14:29:44.773Z,8.70
2022-12-22T14:32:33.487Z,8.60
2022-12-22T14:35:01.443Z,8.60
2022-12-22T14:37:32.784Z,8.60
2022-12-22T14:40:01.134Z,8.60
2022-12-22T14:42:29.394Z,8.60
2022-12-22T14:44:58.314Z,8.60
2022-12-22T14:47:27.909Z,8.60
2022-12-22T14:49:59.211Z,8.60
2022-12-22T14:52:35.858Z,8.60
2022-12-22T14:55:05.307Z,9.30
2022-12-22T14:57:37.960Z,8.60
2022-12-22T15:00:10.456Z,8.60
2022-12-22T15:02:50.589Z,8.60
2022-12-22T15:05:27.734Z,8.60
2022-12-22T15:08:07.889Z,8.50
2022-12-22T15:10:40.765Z,8.50
2022-12-22T15:13:19.350Z,8.50
2022-12-22T15:15:47.359Z,8.50
2022-12-22T15:18:16.310Z,8.50
2022-12-22T15:20:44.312Z,8.50
2022-12-22T15:23:17.367Z,8.50
2022-12-22T15:25:45.807Z,8.50
2022-12-22T15:28:13.871Z,8.50
2022-12-22T15:30:42.460Z,8.50
2022-12-22T15:33:15.029Z,8.50
2022-12-22T15:35:43.793Z,9.40
2022-12-22T15:38:16.221Z,8.50
2022-12-22T15:40:44.718Z,8.50
2022-12-22T15:43:36.789Z,8.50
2022-12-22T15:46:04.750Z,8.50
2022-12-22T15:48:35.533Z,8.50
2022-12-22T15:51:05.332Z,8.50
2022-12-22T15:53:35.571Z,8.50
2022-12-22T15:56:03.807Z,8.50
2022-12-22T15:58:36.428Z,8.70
2022-12-22T16:01:04.459Z,8.80
2022-12-22T16:03:32.482Z,8.50
2022-12-22T16:06:01.212Z,8.50
2022-12-22T16:08:32.229Z,8.50
2022-12-22T16:11:01.717Z,8.50
2022-12-22T16:13:30.165Z,8.50
2022-12-22T16:15:59.425Z,8.50
2022-12-22T16:18:27.810Z,8.50
2022-12-22T16:20:56.666Z,8.50
2022-12-22T16:23:27.551Z,8.80
2022-12-22T16:26:01.722Z,8.50
2022-12-22T16:28:33.180Z,8.50
2022-12-22T16:31:01.993Z,8.50
2022-12-22T16:33:29.960Z,8.50
2022-12-22T16:35:57.914Z,8.50
2022-12-22T16:38:25.847Z,8.60
2022-12-22T16:40:55.006Z,8.60
2022-12-22T16:46:16.103Z,8.60
2022-12-22T16:48:47.071Z,8.60
2022-12-22T16:51:20.464Z,8.60
2022-12-22T16:53:48.648Z,8.80
2022-12-22T16:56:19.315Z,8.60
2022-12-22T16:58:47.869Z,8.60
2022-12-22T17:01:28.594Z,8.60
2022-12-22T17:03:57.495Z,8.60
2022-12-22T17:06:25.564Z,8.60
2022-12-22T17:08:53.960Z,8.60
2022-12-22T17:11:25.967Z,8.60
2022-12-22T17:14:00.942Z,8.60
2022-12-22T17:16:30.326Z,8.70
2022-12-22T17:18:59.843Z,8.80
2022-12-22T17:21:29.660Z,8.90
2022-12-22T17:24:03.685Z,8.80
2022-12-22T17:26:33.607Z,8.80
2022-12-22T17:29:01.736Z,9.00
2022-12-22T17:31:31.075Z,8.90
2022-12-22T17:33:59.217Z,9.00
2022-12-22T17:36:32.645Z,9.00
2022-12-22T17:39:02.332Z,9.00
2022-12-22T17:41:30.405Z,9.00
2022-12-22T17:43:58.386Z,9.10
2022-12-22T17:46:26.319Z,9.10
2022-12-22T17:48:55.628Z,9.10
2022-12-22T17:51:25.990Z,9.10
2022-12-22T17:53:54.809Z,9.20
2022-12-22T17:56:25.186Z,9.20
2022-12-22T17:58:53.496Z,9.20
2022-12-22T18:01:24.497Z,9.20
2022-12-22T18:03:52.763Z,9.20
2022-12-22T18:06:24.972Z,9.20
2022-12-22T18:08:54.239Z,9.20
2022-12-22T18:11:22.515Z,9.20
2022-12-22T18:13:51.582Z,9.20
2022-12-22T18:16:21.509Z,9.20
2022-12-22T18:18:49.889Z,9.30
2022-12-22T18:21:20.615Z,9.30
2022-12-22T18:23:51.483Z,9.30
2022-12-22T18:26:25.344Z,9.40
2022-12-22T18:28:54.184Z,9.40
2022-12-22T18:31:23.568Z,9.40
2022-12-22T18:33:51.870Z,9.40
2022-12-22T18:36:24.534Z,9.40
2022-12-22T18:38:53.825Z,9.40
2022-12-22T18:41:24.501Z,9.50
2022-12-22T18:43:54.316Z,9.50
2022-12-22T18:46:22.674Z,9.50
2022-12-22T18:48:50.684Z,9.50
2022-12-22T18:51:21.844Z,9.50
2022-12-22T18:53:51.096Z,9.50
2022-12-22T18:56:21.208Z,9.40
2022-12-22T18:58:49.138Z,9.50
2022-12-22T19:01:23.465Z,9.60
2022-12-22T19:03:53.800Z,9.80
2022-12-22T19:06:23.363Z,9.50
2022-12-22T19:08:52.607Z,9.50
2022-12-22T19:11:26.927Z,9.50
2022-12-22T19:13:54.866Z,9.60
2022-12-22T19:16:27.673Z,9.70
2022-12-22T19:18:57.113Z,9.60
2022-12-22T19:21:25.186Z,9.60
2022-12-22T19:23:53.196Z,9.60
2022-12-22T19:26:24.804Z,9.70
2022-12-22T19:28:55.375Z,9.60
2022-12-22T19:31:26.550Z,9.60
2022-12-22T19:33:55.983Z,10.40
2022-12-22T19:36:26.655Z,9.60
2022-12-22T19:39:02.685Z,9.70
2022-12-22T19:41:39.893Z,9.60
2022-12-22T19:44:18.347Z,9.60
2022-12-22T19:46:46.517Z,9.60
2022-12-22T19:49:16.857Z,9.60
2022-12-22T19:51:44.816Z,9.60
2022-12-22T19:54:12.792Z,9.60
2022-12-22T19:56:43.303Z,9.60
2022-12-22T19:59:26.279Z,9.60
2022-12-22T20:01:58.547Z,9.60
2022-12-22T20:04:26.995Z,9.60
2022-12-22T20:06:55.230Z,9.60
2022-12-22T20:09:23.179Z,9.60
2022-12-22T20:11:52.514Z,10.10
2022-12-22T20:14:20.945Z,9.60
2022-12-22T20:16:49.067Z,9.60
2022-12-22T20:19:17.263Z,10.20
2022-12-22T20:21:45.581Z,9.60
2022-12-22T20:24:22.019Z,10.10
2022-12-22T20:26:54.170Z,9.60
2022-12-22T20:29:25.790Z,9.60
2022-12-22T20:31:53.993Z,9.60
2022-12-22T20:34:22.000Z,9.60
2022-12-22T20:36:50.037Z,9.70
2022-12-22T20:39:20.387Z,9.60
2022-12-22T20:41:53.369Z,9.60
2022-12-22T20:44:24.006Z,9.50
2022-12-22T20:46:51.984Z,9.50
2022-12-22T20:49:19.948Z,9.60
2022-12-22T20:51:47.905Z,9.50
2022-12-22T20:54:17.046Z,9.60
2022-12-22T20:56:45.931Z,9.60
2022-12-22T20:59:17.083Z,9.60
2022-12-22T21:01:47.402Z,9.60
2022-12-22T21:04:15.968Z,9.60
2022-12-22T21:06:48.072Z,9.70
2022-12-22T21:09:16.140Z,9.70
2022-12-22T21:11:44.333Z,9.70
2022-12-22T21:14:12.689Z,9.70
2022-12-22T21:16:41.932Z,9.70
2022-12-22T21:19:16.993Z,9.70
2022-12-22T21:21:45.093Z,9.70
2022-12-22T21:24:13.093Z,9.70
2022-12-22T21:26:43.816Z,9.70
2022-12-22T21:29:17.507Z,9.70
2022-12-22T21:31:45.488Z,9.80
2022-12-22T21:34:14.848Z,9.70
2022-12-22T21:36:44.809Z,9.70
2022-12-22T21:39:23.572Z,9.80
2022-12-22T21:42:04.575Z,9.70
2022-12-22T21:44:34.286Z,9.70
2022-12-22T21:47:03.023Z,9.80
2022-12-22T21:49:33.520Z,10.70
2022-12-22T21:52:01.904Z,9.80
2022-12-22T21:54:29.918Z,9.70
2022-12-22T21:56:58.025Z,9.70
2022-12-22T21:59:26.370Z,9.70
2022-12-22T22:01:54.592Z,9.80
2022-12-22T22:04:23.082Z,9.70
2022-12-22T22:06:52.389Z,9.70
2022-12-22T22:09:20.468Z,9.70
2022-12-22T22:12:14.420Z,9.70
2022-12-22T22:14:42.422Z,9.70
2022-12-22T22:17:11.830Z,9.70
2022-12-22T22:19:39.818Z,9.70
2022-12-22T22:22:09.896Z,9.70
2022-12-22T22:24:37.987Z,9.70
2022-12-22T22:27:05.930Z,9.70
2022-12-22T22:29:33.897Z,9.70
2022-12-22T22:32:01.814Z,9.70
2022-12-22T22:34:29.855Z,9.60
2022-12-22T22:36:57.892Z,9.60
2022-12-22T22:39:27.400Z,9.60
2022-12-22T22:41:55.339Z,9.70
2022-12-22T22:44:23.524Z,9.70
2022-12-22T22:46:51.556Z,9.60
2022-12-22T22:49:26.109Z,9.60
2022-12-22T22:51:56.135Z,9.60
2022-12-22T22:54:24.167Z,9.60
2022-12-22T22:56:53.739Z,9.60
2022-12-22T22:59:21.753Z,9.70
2022-12-22T23:01:49.754Z,9.60
2022-12-22T23:04:19.195Z,9.60
2022-12-22T23:06:47.590Z,9.60
2022-12-22T23:09:15.629Z,9.60
2022-12-22T23:11:43.688Z,9.60
2022-12-22T23:14:13.191Z,9.60
2022-12-22T23:16:41.301Z,9.60
2022-12-22T23:19:09.260Z,9.60
2022-12-22T23:21:38.269Z,9.60
2022-12-22T23:24:06.997Z,9.60
2022-12-22T23:26:35.113Z,9.60
2022-12-22T23:29:04.087Z,9.60
2022-12-22T23:31:34.025Z,9.60
2022-12-22T23:34:03.016Z,9.70
2022-12-22T23:36:32.923Z,9.60
2022-12-22T23:39:00.992Z,9.60
2022-12-22T23:41:29.002Z,9.60
2022-12-22T23:43:57.477Z,9.60
2022-12-22T23:46:25.749Z,9.60
2022-12-22T23:48:57.654Z,9.60
2022-12-22T23:51:28.063Z,9.60
2022-12-22T23:53:57.118Z,10.00
2022-12-22T23:56:25.036Z,9.60
2022-12-22T23:58:55.188Z,9.60
